Time;durP1;ratioP1;P1;durP2;ratioP2;P2;SDS_P1;SDS_P2;PMS_P1;PMS_P2;Temp;Humidity;BMP_temperature;BMP_pressure;BME280_temperature;BME280_humidity;BME280_pressure;Samples;Min_cycle;Max_cycle;Signal;HPM_P1;HPM_P2
2022/08/23 00:02:23;;;;;;;;;;;537.80;2406.40;;;;;;5073566;28;20066;-56
2022/08/23 00:04:49;;;;;;;;;;;537.90;2406.40;;;;;;5073861;28;19916;-56
2022/08/23 00:07:15;;;;;;;;;;;537.80;2406.40;;;;;;5073910;28;19909;-55
2022/08/23 00:09:40;;;;;;;;;;;537.80;2406.40;;;;;;5074037;28;20282;-56
2022/08/23 00:12:06;;;;;;;;;;;537.70;2406.40;;;;;;5073676;28;19916;-55
2022/08/23 00:14:33;;;;;;;;;;;537.70;2406.40;;;;;;5073741;28;19916;-54
2022/08/23 00:16:59;;;;;;;;;;;537.70;2406.40;;;;;;5073754;28;20362;-55
2022/08/23 00:19:25;;;;;;;;;;;537.70;2406.40;;;;;;5073490;28;19908;-56
2022/08/23 00:21:51;;;;;;;;;;;537.70;2406.40;;;;;;5073765;28;20349;-56
2022/08/23 00:24:18;;;;;;;;;;;537.60;2406.40;;;;;;5073596;28;19915;-56
2022/08/23 00:27:06;;;;;;;;;;;537.60;2406.40;;;;;;5073531;28;19935;-56
2022/08/23 00:29:37;;;;;;;;;;;512.90;2380.80;;;;;;5073411;28;20370;-53
2022/08/23 00:32:04;;;;;;;;;;;512.90;2380.80;;;;;;5073414;28;19920;-56
2022/08/23 00:34:30;;;;;;;;;;;537.60;2406.40;;;;;;5073581;28;19938;-56
2022/08/23 00:36:56;;;;;;;;;;;537.60;2406.40;;;;;;5073435;28;20275;-57
2022/08/23 00:39:21;;;;;;;;;;;512.90;2380.80;;;;;;5073450;28;19912;-56
2022/08/23 00:41:48;;;;;;;;;;;512.90;2380.80;;;;;;5073052;28;20252;-57
2022/08/23 00:49:59;;;;;;;;;;;512.90;2380.80;;;;;;5073499;28;19915;-54
2022/08/23 00:52:33;;;;;;;;;;;512.90;2380.80;;;;;;5072954;28;19915;-55
2022/08/23 00:54:58;;;;;;;;;;;512.90;2380.80;;;;;;5073241;28;19932;-57
2022/08/23 00:57:26;;;;;;;;;;;512.90;2380.80;;;;;;5072807;28;20248;-57
2022/08/23 00:59:52;;;;;;;;;;;512.90;2380.80;;;;;;5072822;28;19970;-55
2022/08/23 01:02:17;;;;;;;;;;;512.90;2380.80;;;;;;5072699;28;20346;-56
2022/08/23 01:04:44;;;;;;;;;;;512.90;2380.80;;;;;;5072323;28;19916;-56
2022/08/23 01:07:21;;;;;;;;;;;537.60;2406.40;;;;;;5072845;28;19920;-56
2022/08/23 01:09:48;;;;;;;;;;;512.90;2380.80;;;;;;5072745;28;19908;-56
2022/08/23 01:12:17;;;;;;;;;;;512.90;2380.80;;;;;;5072601;28;19908;-55
2022/08/23 01:14:46;;;;;;;;;;;512.90;2380.80;;;;;;5072441;28;19912;-55
2022/08/23 01:17:15;;;;;;;;;;;512.90;2380.80;;;;;;5072606;28;19951;-56
2022/08/23 01:19:47;;;;;;;;;;;512.90;2380.80;;;;;;5072819;28;20282;-56
2022/08/23 01:22:26;;;;;;;;;;;512.90;2380.80;;;;;;5072427;28;20023;-56
2022/08/23 01:24:53;;;;;;;;;;;512.90;2380.80;;;;;;5072625;28;19908;-56
2022/08/23 01:27:19;;;;;;;;;;;512.80;2380.80;;;;;;5072437;28;20367;-56
2022/08/23 01:29:45;;;;;;;;;;;512.90;2380.80;;;;;;5071986;28;19908;-55
2022/08/23 01:32:11;;;;;;;;;;;512.90;2380.80;;;;;;5072411;28;19912;-56
2022/08/23 01:34:37;;;;;;;;;;;512.80;2380.80;;;;;;5072027;28;19974;-56
2022/08/23 01:37:03;;;;;;;;;;;512.90;2380.80;;;;;;5072040;28;19916;-55
2022/08/23 01:39:30;;;;;;;;;;;512.80;2380.80;;;;;;5072290;28;19987;-57
2022/08/23 01:41:56;;;;;;;;;;;512.80;2380.80;;;;;;5071869;28;19926;-55
2022/08/23 01:44:21;;;;;;;;;;;512.80;2380.80;;;;;;5072041;28;19991;-56
2022/08/23 01:46:47;;;;;;;;;;;512.70;2380.80;;;;;;5072159;28;19916;-56
2022/08/23 01:49:13;;;;;;;;;;;512.70;2380.80;;;;;;5072108;28;20341;-55
2022/08/23 01:51:38;;;;;;;;;;;512.60;2380.80;;;;;;5071969;28;19909;-55
2022/08/23 01:54:04;;;;;;;;;;;512.60;2380.80;;;;;;5071621;28;19915;-55
2022/08/23 01:56:31;;;;;;;;;;;512.60;2380.80;;;;;;5071464;28;19939;-55
2022/08/23 01:58:57;;;;;;;;;;;512.60;2380.80;;;;;;5071834;28;19909;-57
2022/08/23 02:01:23;;;;;;;;;;;512.60;2380.80;;;;;;5071401;28;20290;-56
2022/08/23 02:03:48;;;;;;;;;;;512.60;2380.80;;;;;;5071646;28;20015;-55
2022/08/23 02:06:14;;;;;;;;;;;512.60;2380.80;;;;;;5071395;28;19974;-55
2022/08/23 02:11:24;;;;;;;;;;;512.50;2380.80;;;;;;5071755;28;19985;-55
2022/08/23 02:13:51;;;;;;;;;;;512.50;2380.80;;;;;;5071352;28;19962;-56
2022/08/23 02:16:24;;;;;;;;;;;512.50;2380.80;;;;;;5071119;28;20374;-56
2022/08/23 02:18:50;;;;;;;;;;;512.50;2380.80;;;;;;5071443;28;19908;-56
2022/08/23 02:21:16;;;;;;;;;;;512.40;2380.80;;;;;;5071434;28;19923;-55
2022/08/23 02:23:42;;;;;;;;;;;512.50;2380.80;;;;;;5071372;28;20402;-56
2022/08/23 02:26:08;;;;;;;;;;;512.50;2380.80;;;;;;5071381;28;19916;-56
2022/08/23 02:28:33;;;;;;;;;;;512.30;2380.80;;;;;;5071184;28;19909;-56
2022/08/23 02:30:59;;;;;;;;;;;512.20;2380.80;;;;;;5070861;28;19912;-55
2022/08/23 02:33:24;;;;;;;;;;;512.10;2380.80;;;;;;5071028;28;20318;-56
2022/08/23 02:35:50;;;;;;;;;;;512.00;2380.80;;;;;;5071218;28;19951;-56
2022/08/23 02:38:17;;;;;;;;;;;512.00;2380.80;;;;;;5070897;28;19915;-56
2022/08/23 02:40:42;;;;;;;;;;;512.00;2380.80;;;;;;5070977;28;19930;-56
2022/08/23 02:43:08;;;;;;;;;;;487.30;2380.80;;;;;;5071123;28;19920;-56
2022/08/23 02:45:34;;;;;;;;;;;487.30;2380.80;;;;;;5070815;28;19970;-56
2022/08/23 02:48:00;;;;;;;;;;;487.20;2380.80;;;;;;5071036;28;19912;-56
2022/08/23 02:50:26;;;;;;;;;;;487.10;2380.80;;;;;;5070716;28;19916;-55
2022/08/23 02:52:53;;;;;;;;;;;487.00;2380.80;;;;;;5071110;28;19912;-55
2022/08/23 02:55:19;;;;;;;;;;;487.00;2048.00;;;;;;5071082;28;19909;-56
2022/08/23 02:57:44;;;;;;;;;;;487.10;2380.80;;;;;;5070879;28;20011;-56
2022/08/23 03:00:11;;;;;;;;;;;487.10;2380.80;;;;;;5070823;28;19948;-56
2022/08/23 03:02:37;;;;;;;;;;;487.10;2380.80;;;;;;5070656;28;19920;-55
2022/08/23 03:05:07;;;;;;;;;;;487.10;2278.40;;;;;;5070602;28;19947;-56
2022/08/23 03:07:32;;;;;;;;;;;487.20;2380.80;;;;;;5074230;28;19958;-55
2022/08/23 03:09:58;;;;;;;;;;;487.30;2380.80;;;;;;5075063;28;19948;-56
2022/08/23 03:12:25;;;;;;;;;;;512.00;2380.80;;;;;;5074900;28;19915;-57
2022/08/23 03:14:51;;;;;;;;;;;512.00;2380.80;;;;;;5074849;28;19909;-56
2022/08/23 03:17:17;;;;;;;;;;;512.10;2380.80;;;;;;5074914;28;19912;-57
2022/08/23 03:19:43;;;;;;;;;;;512.10;2380.80;;;;;;5074848;28;20355;-56
2022/08/23 03:22:08;;;;;;;;;;;512.00;2380.80;;;;;;5075195;28;19956;-56
2022/08/23 03:24:35;;;;;;;;;;;512.00;2380.80;;;;;;5074789;28;20351;-55
2022/08/23 03:27:01;;;;;;;;;;;487.30;2380.80;;;;;;5074931;28;19909;-55
2022/08/23 03:29:27;;;;;;;;;;;487.30;2380.80;;;;;;5074454;28;20389;-56
2022/08/23 03:31:53;;;;;;;;;;;487.30;2380.80;;;;;;5074173;28;19944;-56
2022/08/23 03:34:18;;;;;;;;;;;487.20;2304.00;;;;;;5074819;28;19936;-56
2022/08/23 03:36:44;;;;;;;;;;;487.20;2252.80;;;;;;5074319;28;20301;-55
2022/08/23 03:39:10;;;;;;;;;;;487.30;2380.80;;;;;;5074650;28;19916;-54
2022/08/23 03:41:35;;;;;;;;;;;487.30;2380.80;;;;;;5074262;28;19916;-56
2022/08/23 03:44:01;;;;;;;;;;;487.30;2380.80;;;;;;5074427;28;19909;-56
2022/08/23 03:46:26;;;;;;;;;;;487.30;2380.80;;;;;;5074067;28;19916;-56
2022/08/23 03:48:58;;;;;;;;;;;487.30;2380.80;;;;;;5074400;28;19912;-57
2022/08/23 03:51:24;;;;;;;;;;;487.30;2380.80;;;;;;5074124;28;20378;-56
2022/08/23 03:53:50;;;;;;;;;;;487.30;2380.80;;;;;;5074409;28;19961;-55
2022/08/23 03:56:23;;;;;;;;;;;487.20;2380.80;;;;;;5074229;28;19946;-56
2022/08/23 03:58:49;;;;;;;;;;;487.10;2329.60;;;;;;5074159;28;19912;-56
2022/08/23 04:01:15;;;;;;;;;;;487.10;2380.80;;;;;;5073722;28;19920;-55
2022/08/23 04:03:41;;;;;;;;;;;487.10;2380.80;;;;;;5074336;28;20324;-56
2022/08/23 04:06:06;;;;;;;;;;;487.10;2380.80;;;;;;5073674;28;19920;-56
2022/08/23 04:08:32;;;;;;;;;;;487.10;2380.80;;;;;;5074177;28;19912;-56
2022/08/23 04:10:57;;;;;;;;;;;487.20;2380.80;;;;;;5074033;28;20343;-55
2022/08/23 04:13:23;;;;;;;;;;;487.20;2380.80;;;;;;5073573;28;19917;-56
2022/08/23 04:15:49;;;;;;;;;;;487.20;2380.80;;;;;;5073692;28;19970;-56
2022/08/23 04:18:15;;;;;;;;;;;487.30;2380.80;;;;;;5072813;28;20347;-55
2022/08/23 04:20:41;;;;;;;;;;;487.30;2380.80;;;;;;5073766;28;20274;-55
2022/08/23 04:23:07;;;;;;;;;;;487.30;2380.80;;;;;;5073484;28;19919;-55
2022/08/23 04:25:33;;;;;;;;;;;487.30;2380.80;;;;;;5073600;28;20274;-55
2022/08/23 04:27:59;;;;;;;;;;;487.30;2380.80;;;;;;5073748;28;19908;-55
2022/08/23 04:30:25;;;;;;;;;;;512.00;2380.80;;;;;;5073120;28;19972;-55
2022/08/23 04:32:51;;;;;;;;;;;512.00;2380.80;;;;;;5073499;28;20313;-56
2022/08/23 04:35:16;;;;;;;;;;;487.30;2380.80;;;;;;5073151;28;19998;-56
2022/08/23 04:37:42;;;;;;;;;;;512.00;2380.80;;;;;;5073590;28;19909;-55
2022/08/23 04:42:52;;;;;;;;;;;512.00;2380.80;;;;;;5073460;28;20748;-55
2022/08/23 04:45:18;;;;;;;;;;;512.00;2380.80;;;;;;5073329;28;20003;-55
2022/08/23 04:47:44;;;;;;;;;;;512.10;2380.80;;;;;;5073173;28;19909;-55
2022/08/23 04:50:09;;;;;;;;;;;512.10;2380.80;;;;;;5073434;28;19908;-55
2022/08/23 04:52:35;;;;;;;;;;;512.00;2380.80;;;;;;5073135;28;19908;-55
2022/08/23 04:55:01;;;;;;;;;;;512.10;2380.80;;;;;;5073218;28;19915;-55
2022/08/23 04:57:26;;;;;;;;;;;512.10;2380.80;;;;;;5072985;28;20432;-56
2022/08/23 04:59:52;;;;;;;;;;;512.00;2380.80;;;;;;5072935;28;19924;-56
2022/08/23 05:02:19;;;;;;;;;;;512.00;2380.80;;;;;;5072956;28;19921;-55
2022/08/23 05:04:45;;;;;;;;;;;487.30;2380.80;;;;;;5072577;28;19917;-55
2022/08/23 05:07:11;;;;;;;;;;;512.00;2380.80;;;;;;5073142;28;19977;-55
2022/08/23 05:09:37;;;;;;;;;;;512.00;2380.80;;;;;;5072622;28;20358;-56
2022/08/23 05:12:02;;;;;;;;;;;512.10;2380.80;;;;;;5072901;28;19920;-56
2022/08/23 05:14:28;;;;;;;;;;;512.00;2380.80;;;;;;5072528;28;19908;-55
2022/08/23 05:16:54;;;;;;;;;;;512.10;2380.80;;;;;;5072524;28;19908;-55
2022/08/23 05:19:19;;;;;;;;;;;512.00;2380.80;;;;;;5072911;28;19969;-56
2022/08/23 05:21:45;;;;;;;;;;;512.00;2380.80;;;;;;5072579;28;19916;-54
2022/08/23 05:24:10;;;;;;;;;;;512.00;2380.80;;;;;;5072556;28;19915;-55
2022/08/23 05:26:36;;;;;;;;;;;512.00;2380.80;;;;;;5072365;28;19913;-56
2022/08/23 05:29:01;;;;;;;;;;;512.00;2380.80;;;;;;5071963;28;19908;-55
2022/08/23 05:31:28;;;;;;;;;;;512.00;2380.80;;;;;;5071359;28;19966;-56
2022/08/23 05:33:53;;;;;;;;;;;487.30;2380.80;;;;;;5072101;28;19966;-55
2022/08/23 05:36:20;;;;;;;;;;;487.30;2380.80;;;;;;5072336;28;19909;-55
2022/08/23 05:38:46;;;;;;;;;;;487.30;2380.80;;;;;;5072052;28;19909;-55
2022/08/23 05:41:12;;;;;;;;;;;487.30;2380.80;;;;;;5072233;28;20031;-54
2022/08/23 05:43:37;;;;;;;;;;;512.00;2380.80;;;;;;5072014;28;20315;-55
2022/08/23 05:46:03;;;;;;;;;;;512.00;2380.80;;;;;;5071896;28;19912;-56
2022/08/23 05:48:30;;;;;;;;;;;512.00;2380.80;;;;;;5072245;28;19992;-55
2022/08/23 05:50:55;;;;;;;;;;;512.00;2380.80;;;;;;5071830;28;19916;-55
2022/08/23 05:53:21;;;;;;;;;;;512.00;2380.80;;;;;;5072151;28;19908;-54
2022/08/23 05:55:47;;;;;;;;;;;487.30;2380.80;;;;;;5071915;28;19995;-55
2022/08/23 05:58:12;;;;;;;;;;;512.00;2380.80;;;;;;5071622;28;20378;-54
2022/08/23 06:00:38;;;;;;;;;;;512.10;2380.80;;;;;;5071729;28;20243;-54
2022/08/23 06:03:03;;;;;;;;;;;512.10;2380.80;;;;;;5071701;28;19988;-55
2022/08/23 06:05:29;;;;;;;;;;;512.00;2380.80;;;;;;5071722;28;19967;-55
2022/08/23 06:07:54;;;;;;;;;;;512.00;2380.80;;;;;;5071503;28;19908;-54
2022/08/23 06:10:20;;;;;;;;;;;512.00;2380.80;;;;;;5071892;28;19915;-56
2022/08/23 06:12:46;;;;;;;;;;;487.30;2380.80;;;;;;5071443;28;20297;-55
2022/08/23 06:15:12;;;;;;;;;;;487.30;2380.80;;;;;;5071685;28;19908;-56
2022/08/23 06:17:38;;;;;;;;;;;487.30;2380.80;;;;;;5071612;28;19915;-60
2022/08/23 06:20:04;;;;;;;;;;;487.20;2380.80;;;;;;5071475;28;19912;-61
2022/08/23 06:22:30;;;;;;;;;;;487.30;2380.80;;;;;;5071493;28;19916;-60
2022/08/23 06:24:55;;;;;;;;;;;512.00;2380.80;;;;;;5071315;28;20265;-59
2022/08/23 06:27:21;;;;;;;;;;;512.00;2380.80;;;;;;5071514;28;20346;-61
2022/08/23 06:29:47;;;;;;;;;;;512.00;2380.80;;;;;;5071048;28;19954;-59
2022/08/23 06:32:13;;;;;;;;;;;512.10;2380.80;;;;;;5071332;28;19939;-60
2022/08/23 06:34:38;;;;;;;;;;;487.30;2380.80;;;;;;5071570;28;20003;-61
2022/08/23 06:37:05;;;;;;;;;;;487.30;2380.80;;;;;;5071007;28;19948;-60
2022/08/23 06:39:31;;;;;;;;;;;487.30;2380.80;;;;;;5071027;28;19913;-61
2022/08/23 06:42:08;;;;;;;;;;;487.30;2380.80;;;;;;5070831;28;19916;-60
2022/08/23 06:44:34;;;;;;;;;;;512.00;2380.80;;;;;;5070919;28;20259;-60
2022/08/23 06:47:00;;;;;;;;;;;487.30;2380.80;;;;;;5070981;28;19962;-59
2022/08/23 06:49:26;;;;;;;;;;;487.20;2380.80;;;;;;5071148;28;19935;-61
2022/08/23 06:51:53;;;;;;;;;;;487.20;2380.80;;;;;;5071216;28;20009;-59
2022/08/23 06:54:20;;;;;;;;;;;512.00;2380.80;;;;;;5071007;28;20046;-59
2022/08/23 06:56:47;;;;;;;;;;;512.00;2380.80;;;;;;5070706;28;20308;-60
2022/08/23 06:59:13;;;;;;;;;;;512.00;2380.80;;;;;;5071141;28;19909;-59
2022/08/23 07:01:47;;;;;;;;;;;512.00;2380.80;;;;;;5070702;28;19924;-61
2022/08/23 07:04:14;;;;;;;;;;;512.00;2380.80;;;;;;5070908;28;19912;-59
2022/08/23 07:06:39;;;;;;;;;;;512.00;2380.80;;;;;;5070893;28;19916;-61
2022/08/23 07:09:05;;;;;;;;;;;512.00;2380.80;;;;;;5070780;28;19987;-59
2022/08/23 07:11:31;;;;;;;;;;;512.10;2380.80;;;;;;5071117;28;19954;-61
2022/08/23 07:14:01;;;;;;;;;;;512.00;2380.80;;;;;;5070673;28;19908;-61
2022/08/23 07:16:34;;;;;;;;;;;512.00;2380.80;;;;;;5070545;28;20262;-59
2022/08/23 07:18:59;;;;;;;;;;;487.30;2380.80;;;;;;5070828;28;19909;-60
2022/08/23 07:21:25;;;;;;;;;;;512.00;2380.80;;;;;;5070739;28;19916;-61
2022/08/23 07:23:51;;;;;;;;;;;487.30;2380.80;;;;;;5070826;28;20316;-60
2022/08/23 07:26:17;;;;;;;;;;;512.00;2380.80;;;;;;5070500;28;20334;-59
2022/08/23 07:28:43;;;;;;;;;;;487.30;2380.80;;;;;;5070750;28;20052;-61
2022/08/23 07:31:14;;;;;;;;;;;512.00;2380.80;;;;;;5070515;28;19935;-60
2022/08/23 07:33:40;;;;;;;;;;;512.00;2380.80;;;;;;5070814;28;19913;-59
2022/08/23 07:36:06;;;;;;;;;;;512.00;2380.80;;;;;;5070441;28;19916;-61
2022/08/23 07:38:32;;;;;;;;;;;487.30;2380.80;;;;;;5070503;28;19912;-60
2022/08/23 07:40:57;;;;;;;;;;;487.30;2380.80;;;;;;5070403;28;19908;-61
2022/08/23 07:43:23;;;;;;;;;;;512.00;2380.80;;;;;;5070375;28;20017;-60
2022/08/23 07:45:49;;;;;;;;;;;512.00;2380.80;;;;;;5070512;28;20351;-59
2022/08/23 07:48:14;;;;;;;;;;;512.00;2380.80;;;;;;5070602;28;19916;-59
2022/08/23 07:50:40;;;;;;;;;;;487.30;2380.80;;;;;;5070679;28;20351;-62
2022/08/23 07:53:06;;;;;;;;;;;487.30;2380.80;;;;;;5071448;28;19909;-61
2022/08/23 07:55:32;;;;;;;;;;;487.30;2380.80;;;;;;5074295;28;19962;-61
2022/08/23 07:57:58;;;;;;;;;;;487.30;2380.80;;;;;;5074188;28;19909;-61
2022/08/23 08:00:24;;;;;;;;;;;512.00;2380.80;;;;;;5073831;28;20334;-60
2022/08/23 08:02:50;;;;;;;;;;;512.00;2380.80;;;;;;5073825;28;19924;-62
2022/08/23 08:05:15;;;;;;;;;;;512.00;2380.80;;;;;;5073869;28;19925;-61
2022/08/23 08:07:42;;;;;;;;;;;512.00;2380.80;;;;;;5073877;28;20006;-62
2022/08/23 08:10:08;;;;;;;;;;;512.00;2380.80;;;;;;5073780;28;19947;-59
2022/08/23 08:12:33;;;;;;;;;;;487.30;2380.80;;;;;;5073752;28;19920;-61
2022/08/23 08:14:59;;;;;;;;;;;512.00;2380.80;;;;;;5073895;28;19923;-61
2022/08/23 08:17:24;;;;;;;;;;;512.10;2380.80;;;;;;5073683;28;20440;-61
2022/08/23 08:19:50;;;;;;;;;;;512.20;2380.80;;;;;;5073995;28;19919;-62
2022/08/23 08:22:15;;;;;;;;;;;512.20;2380.80;;;;;;5073661;28;20362;-61
2022/08/23 08:24:41;;;;;;;;;;;512.10;2380.80;;;;;;5073775;28;20355;-60
2022/08/23 08:27:07;;;;;;;;;;;512.10;2380.80;;;;;;5073421;28;19944;-60
2022/08/23 08:29:33;;;;;;;;;;;512.10;2380.80;;;;;;5071511;28;20274;-61
2022/08/23 08:31:59;;;;;;;;;;;512.10;2380.80;;;;;;5071390;28;19923;-61
2022/08/23 08:34:25;;;;;;;;;;;512.20;2380.80;;;;;;5071214;28;19912;-62
2022/08/23 08:36:52;;;;;;;;;;;512.20;2380.80;;;;;;5071369;28;19913;-60
2022/08/23 08:39:20;;;;;;;;;;;512.20;2380.80;;;;;;5071203;28;19908;-60
2022/08/23 08:41:49;;;;;;;;;;;512.30;2380.80;;;;;;5070943;28;19916;-60
2022/08/23 08:44:30;;;;;;;;;;;512.40;2380.80;;;;;;5071184;28;19908;-60
2022/08/23 08:46:56;;;;;;;;;;;512.40;2380.80;;;;;;5070901;28;19913;-61
2022/08/23 08:49:23;;;;;;;;;;;512.60;2380.80;;;;;;5071177;28;20262;-60
2022/08/23 08:51:49;;;;;;;;;;;512.70;2380.80;;;;;;5071128;28;19912;-59
2022/08/23 08:54:17;;;;;;;;;;;512.70;2380.80;;;;;;5070975;28;20420;-61
2022/08/23 08:56:45;;;;;;;;;;;512.90;2380.80;;;;;;5070556;28;19935;-60
2022/08/23 08:59:18;;;;;;;;;;;537.60;2406.40;;;;;;5071025;28;19941;-61
2022/08/23 09:01:44;;;;;;;;;;;537.70;2406.40;;;;;;5070363;28;19955;-60
2022/08/23 09:04:10;;;;;;;;;;;537.70;2406.40;;;;;;5070778;28;20330;-61
2022/08/23 09:06:35;;;;;;;;;;;537.80;2406.40;;;;;;5070686;28;19916;-60
2022/08/23 09:09:04;;;;;;;;;;;537.70;2406.40;;;;;;5070558;28;19912;-60
2022/08/23 09:11:49;;;;;;;;;;;537.70;2406.40;;;;;;5070776;28;19954;-61
2022/08/23 09:14:23;;;;;;;;;;;537.70;2406.40;;;;;;5070465;28;19916;-61
2022/08/23 09:16:51;;;;;;;;;;;537.70;2406.40;;;;;;5070627;28;19913;-60
2022/08/23 09:19:17;;;;;;;;;;;537.70;2406.40;;;;;;5070377;28;19915;-61
2022/08/23 09:21:48;;;;;;;;;;;512.90;2380.80;;;;;;5070010;28;19973;-60
2022/08/23 09:24:14;;;;;;;;;;;512.90;2380.80;;;;;;5069218;28;20352;-60
2022/08/23 09:26:40;;;;;;;;;;;512.90;2380.80;;;;;;5070350;28;19919;-61
2022/08/23 09:29:21;;;;;;;;;;;512.90;2380.80;;;;;;5070144;28;19909;-61
2022/08/23 09:31:51;;;;;;;;;;;537.80;2406.40;;;;;;5069852;28;19919;-61
2022/08/23 09:34:22;;;;;;;;;;;537.80;2406.40;;;;;;5069474;28;20003;-60
2022/08/23 09:36:48;;;;;;;;;;;512.90;2380.80;;;;;;5070124;28;19991;-62
2022/08/23 09:39:23;;;;;;;;;;;512.90;2380.80;;;;;;5070420;28;19912;-61
2022/08/23 09:41:49;;;;;;;;;;;512.90;2380.80;;;;;;5072373;28;19920;-62
2022/08/23 09:44:29;;;;;;;;;;;512.80;2380.80;;;;;;5071974;28;19975;-60
2022/08/23 09:47:03;;;;;;;;;;;512.70;2380.80;;;;;;5072065;28;19908;-60
2022/08/23 09:49:29;;;;;;;;;;;512.80;2380.80;;;;;;5072267;28;19908;-60
2022/08/23 09:51:57;;;;;;;;;;;512.80;2380.80;;;;;;5071855;28;19914;-61
2022/08/23 09:54:25;;;;;;;;;;;512.80;2380.80;;;;;;5072230;28;19955;-61
2022/08/23 09:56:53;;;;;;;;;;;537.70;2406.40;;;;;;5072051;28;19908;-60
2022/08/23 09:59:41;;;;;;;;;;;537.80;2406.40;;;;;;5071733;28;20325;-60
2022/08/23 10:02:13;;;;;;;;;;;537.90;2406.40;;;;;;5063323;28;20015;-60
2022/08/23 10:04:41;;;;;;;;;;;538.00;2406.40;;;;;;5071445;28;20322;-61
2022/08/23 10:07:24;;;;;;;;;;;538.10;2406.40;;;;;;5071434;28;20370;-59
2022/08/23 10:09:50;;;;;;;;;;;538.20;2406.40;;;;;;5071690;28;20000;-59
2022/08/23 10:12:16;;;;;;;;;;;538.40;2406.40;;;;;;5071483;28;20353;-60
2022/08/23 10:14:41;;;;;;;;;;;538.50;2406.40;;;;;;5071547;28;19919;-61
2022/08/23 10:17:07;;;;;;;;;;;538.50;2406.40;;;;;;5070504;28;19908;-59
2022/08/23 10:19:38;;;;;;;;;;;563.40;2432.00;;;;;;5071531;28;20607;-61
2022/08/23 10:22:13;;;;;;;;;;;563.50;2432.00;;;;;;5071326;28;19921;-60
2022/08/23 10:24:53;;;;;;;;;;;563.50;2432.00;;;;;;5071279;28;19999;-60
2022/08/23 10:30:26;;;;;;;;;;;563.60;2432.00;;;;;;5071290;28;19966;-60
2022/08/23 10:32:55;;;;;;;;;;;563.60;2432.00;;;;;;5071408;28;19912;-60
2022/08/23 10:35:21;;;;;;;;;;;563.60;2432.00;;;;;;5071277;28;19915;-60
2022/08/23 10:37:50;;;;;;;;;;;563.60;2432.00;;;;;;5070960;28;19915;-60
2022/08/23 10:40:22;;;;;;;;;;;563.70;2432.00;;;;;;5067753;28;20251;-59
2022/08/23 10:43:14;;;;;;;;;;;564.10;2432.00;;;;;;5069103;28;19916;-61
2022/08/23 10:45:40;;;;;;;;;;;563.90;2432.00;;;;;;5065900;28;20278;-59
2022/08/23 10:48:12;;;;;;;;;;;564.10;2432.00;;;;;;5068905;28;19948;-61
2022/08/23 10:50:58;;;;;;;;;;;589.10;2432.00;;;;;;5069029;28;19913;-60
2022/08/23 10:53:55;;;;;;;;;;;589.00;2432.00;;;;;;5067597;28;20392;-59
2022/08/23 10:56:22;;;;;;;;;;;589.10;2432.00;;;;;;5056552;28;19913;-59
2022/08/23 10:59:02;;;;;;;;;;;589.20;2432.00;;;;;;5068931;28;19908;-61
2022/08/23 11:01:39;;;;;;;;;;;589.00;2432.00;;;;;;5068712;28;19923;-59
2022/08/23 11:04:10;;;;;;;;;;;588.90;2432.00;;;;;;5068618;28;19912;-59
2022/08/23 11:06:36;;;;;;;;;;;564.10;2432.00;;;;;;5068162;28;20420;-60
2022/08/23 11:09:13;;;;;;;;;;;564.10;2432.00;;;;;;5068824;28;19913;-59
2022/08/23 11:11:47;;;;;;;;;;;564.00;2432.00;;;;;;5068770;28;19909;-60
2022/08/23 11:14:31;;;;;;;;;;;563.90;2432.00;;;;;;5068875;28;19912;-61
2022/08/23 11:16:59;;;;;;;;;;;564.00;2432.00;;;;;;5068533;28;19909;-59
2022/08/23 11:19:43;;;;;;;;;;;564.10;2432.00;;;;;;5068178;28;19909;-59
2022/08/23 11:22:13;;;;;;;;;;;564.10;2432.00;;;;;;5068500;28;19918;-61
2022/08/23 11:24:49;;;;;;;;;;;563.90;2432.00;;;;;;5068957;28;19909;-59
2022/08/23 11:27:32;;;;;;;;;;;563.90;2432.00;;;;;;5068599;28;20387;-61
2022/08/23 11:30:18;;;;;;;;;;;563.90;2432.00;;;;;;5072633;28;19931;-58
2022/08/23 11:32:44;;;;;;;;;;;564.00;2432.00;;;;;;5071816;28;20016;-59
2022/08/23 11:35:21;;;;;;;;;;;563.80;2432.00;;;;;;5072804;28;20445;-61
2022/08/23 11:37:48;;;;;;;;;;;563.80;2432.00;;;;;;5072268;28;19987;-60
2022/08/23 11:40:34;;;;;;;;;;;563.80;2432.00;;;;;;5072424;28;19918;-61
2022/08/23 11:43:04;;;;;;;;;;;563.60;2432.00;;;;;;5072390;28;19916;-60
2022/08/23 11:45:40;;;;;;;;;;;563.60;2432.00;;;;;;5071896;28;19909;-61
2022/08/23 11:48:14;;;;;;;;;;;563.60;2432.00;;;;;;5072233;28;20038;-61
2022/08/23 11:50:56;;;;;;;;;;;563.50;2432.00;;;;;;5072406;28;19912;-61
2022/08/23 11:53:31;;;;;;;;;;;563.40;2432.00;;;;;;5070247;28;19994;-60
2022/08/23 11:56:04;;;;;;;;;;;563.40;2432.00;;;;;;5068630;28;20318;-61
2022/08/23 11:58:51;;;;;;;;;;;563.30;2432.00;;;;;;5065968;28;19920;-59
2022/08/23 12:01:26;;;;;;;;;;;563.30;2432.00;;;;;;5068114;28;19916;-59
2022/08/23 12:04:11;;;;;;;;;;;563.30;2432.00;;;;;;5066426;28;19990;-60
2022/08/23 12:06:41;;;;;;;;;;;563.30;2432.00;;;;;;5070994;28;19925;-60
2022/08/23 12:09:10;;;;;;;;;;;538.50;2406.40;;;;;;5070231;28;19916;-60
2022/08/23 12:12:02;;;;;;;;;;;538.50;2406.40;;;;;;5069458;28;19922;-60
2022/08/23 12:14:31;;;;;;;;;;;538.50;2406.40;;;;;;5061316;28;20387;-59
2022/08/23 12:17:04;;;;;;;;;;;538.50;2406.40;;;;;;5069312;28;20394;-60
2022/08/23 12:19:34;;;;;;;;;;;538.40;2406.40;;;;;;5069634;28;19912;-60
2022/08/23 12:22:18;;;;;;;;;;;538.40;2406.40;;;;;;5068680;28;19943;-59
2022/08/23 12:24:51;;;;;;;;;;;538.50;2406.40;;;;;;5068530;28;19916;-61
2022/08/23 12:27:26;;;;;;;;;;;538.50;2406.40;;;;;;5070739;28;19908;-59
2022/08/23 12:29:51;;;;;;;;;;;538.50;2406.40;;;;;;5069072;28;19916;-59
2022/08/23 12:32:36;;;;;;;;;;;538.50;2406.40;;;;;;5071273;28;19924;-60
2022/08/23 12:35:05;;;;;;;;;;;563.30;2432.00;;;;;;5071393;28;19923;-61
2022/08/23 12:37:35;;;;;;;;;;;563.20;2432.00;;;;;;5070970;28;20413;-60
2022/08/23 12:40:03;;;;;;;;;;;538.50;2406.40;;;;;;5070808;28;20542;-60
2022/08/23 12:42:30;;;;;;;;;;;538.40;2406.40;;;;;;5071322;28;19924;-61
2022/08/23 12:45:25;;;;;;;;;;;538.30;2406.40;;;;;;5071328;28;19995;-61
2022/08/23 12:47:55;;;;;;;;;;;538.30;2406.40;;;;;;5069750;28;20016;-61
2022/08/23 12:50:31;;;;;;;;;;;538.20;2406.40;;;;;;5070622;28;19913;-61
2022/08/23 12:52:58;;;;;;;;;;;538.00;2406.40;;;;;;5070878;28;19912;-60
2022/08/23 12:55:28;;;;;;;;;;;538.10;2406.40;;;;;;5070921;28;19962;-60
2022/08/23 12:57:55;;;;;;;;;;;538.00;2406.40;;;;;;5072835;28;19913;-60
2022/08/23 13:00:20;;;;;;;;;;;538.10;2406.40;;;;;;5072989;28;19958;-61
2022/08/23 13:02:50;;;;;;;;;;;538.10;2406.40;;;;;;5072704;28;19924;-60
2022/08/23 13:05:36;;;;;;;;;;;538.10;2406.40;;;;;;5072705;28;19927;-61
2022/08/23 13:08:04;;;;;;;;;;;538.10;2406.40;;;;;;5072499;28;19908;-61
2022/08/23 13:10:30;;;;;;;;;;;538.00;2406.40;;;;;;5073017;28;20291;-60
2022/08/23 13:12:56;;;;;;;;;;;538.10;2406.40;;;;;;5072470;28;19917;-60
2022/08/23 13:15:40;;;;;;;;;;;538.00;2406.40;;;;;;5072907;28;19908;-60
2022/08/23 13:18:05;;;;;;;;;;;537.80;2406.40;;;;;;5072593;28;19909;-60
2022/08/23 13:20:31;;;;;;;;;;;537.80;2406.40;;;;;;5072688;28;19961;-61
2022/08/23 13:22:58;;;;;;;;;;;537.80;2406.40;;;;;;5072431;28;19922;-61
2022/08/23 13:25:38;;;;;;;;;;;537.80;2406.40;;;;;;5072542;28;19913;-61
2022/08/23 13:28:23;;;;;;;;;;;537.80;2406.40;;;;;;5072375;28;19913;-61
2022/08/23 13:31:00;;;;;;;;;;;537.80;2406.40;;;;;;5070370;28;19939;-61
2022/08/23 13:33:25;;;;;;;;;;;537.80;2406.40;;;;;;5070099;28;20013;-61
2022/08/23 13:36:04;;;;;;;;;;;537.80;2406.40;;;;;;5070138;28;20370;-60
2022/08/23 13:38:30;;;;;;;;;;;537.80;2406.40;;;;;;5070299;28;19920;-59
2022/08/23 13:40:59;;;;;;;;;;;537.70;2406.40;;;;;;5069927;28;19916;-60
2022/08/23 13:43:36;;;;;;;;;;;537.80;2406.40;;;;;;5069700;28;19916;-60
2022/08/23 13:46:14;;;;;;;;;;;537.70;2406.40;;;;;;5070109;28;20370;-58
2022/08/23 13:48:45;;;;;;;;;;;537.70;2406.40;;;;;;5070108;28;19978;-59
2022/08/23 13:51:23;;;;;;;;;;;512.90;2380.80;;;;;;5068949;28;20469;-59
2022/08/23 13:53:48;;;;;;;;;;;512.90;2380.80;;;;;;5070038;28;19916;-59
2022/08/23 13:56:15;;;;;;;;;;;537.60;2406.40;;;;;;5069483;28;19978;-60
2022/08/23 13:58:40;;;;;;;;;;;537.60;2406.40;;;;;;5069557;28;19908;-61
2022/08/23 14:01:11;;;;;;;;;;;537.60;2406.40;;;;;;5068797;28;19919;-60
2022/08/23 14:03:37;;;;;;;;;;;537.60;2406.40;;;;;;5069695;28;19956;-59
2022/08/23 14:06:02;;;;;;;;;;;537.60;2406.40;;;;;;5068386;28;19987;-61